createdAt,value
2023-05-21T10:52:08.952Z,101752.06
2023-05-21T10:54:54.277Z,101746.16
2023-05-21T10:57:26.366Z,101755.34
2023-05-21T10:59:53.407Z,101752.97
2023-05-21T11:02:21.011Z,101742.22
2023-05-21T11:04:49.046Z,101742.19
2023-05-21T11:07:24.518Z,101747.50
2023-05-21T11:09:51.020Z,101749.25
2023-05-21T11:12:17.971Z,101748.34
2023-05-21T11:14:58.010Z,101743.94
2023-05-21T11:17:39.349Z,101743.63
2023-05-21T11:20:11.628Z,101740.78
2023-05-21T11:22:37.990Z,101737.69
2023-05-21T11:25:04.962Z,101732.84
2023-05-21T11:27:35.873Z,101733.22
2023-05-21T11:30:08.148Z,101729.34
2023-05-21T11:33:13.619Z,101729.53
2023-05-21T11:35:59.923Z,101724.78
2023-05-21T11:38:31.584Z,101717.31
2023-05-21T11:41:03.646Z,101716.63
2023-05-21T11:43:30.946Z,101706.69
2023-05-21T11:45:57.756Z,101709.78
2023-05-21T11:48:29.428Z,101704.72
2023-05-21T11:50:57.420Z,101704.16
2023-05-21T11:53:23.953Z,101703.94
2023-05-21T11:55:57.160Z,101701.31
2023-05-21T11:58:23.673Z,101692.91
2023-05-21T12:00:51.348Z,101697.50
2023-05-21T12:03:18.015Z,101701.94
2023-05-21T12:05:48.845Z,101702.94
2023-05-21T12:08:27.729Z,101696.94
2023-05-21T12:11:01.771Z,101692.44
2023-05-21T12:13:28.544Z,101694.97
2023-05-21T12:15:55.050Z,101685.13
2023-05-21T12:18:21.993Z,101691.13
2023-05-21T12:20:48.497Z,101679.69
2023-05-21T12:23:23.774Z,101683.91
2023-05-21T12:25:51.149Z,101673.78
2023-05-21T12:28:17.637Z,101671.19
2023-05-21T12:30:44.247Z,101665.59
2023-05-21T12:33:12.049Z,101674.69
2023-05-21T12:35:38.615Z,101674.56
2023-05-21T12:38:06.926Z,101674.00
2023-05-21T12:40:38.304Z,101670.03
2023-05-21T12:43:06.090Z,101667.69
2023-05-21T12:45:33.126Z,101671.81
2023-05-21T12:48:03.176Z,101673.19
2023-05-21T12:50:29.773Z,101672.28
2023-05-21T12:52:58.398Z,101661.66
2023-05-21T12:55:28.492Z,101665.94
2023-05-21T12:58:05.583Z,101663.63
2023-05-21T13:00:32.803Z,101669.59
2023-05-21T13:03:00.975Z,101660.56
2023-05-21T13:05:27.569Z,101667.75
2023-05-21T13:07:53.961Z,101671.81
2023-05-21T13:10:20.499Z,101679.25
2023-05-21T13:12:46.974Z,101673.44
2023-05-21T13:15:15.548Z,101665.53
2023-05-21T13:17:42.120Z,101667.75
2023-05-21T13:20:15.668Z,101664.72
2023-05-21T13:22:46.390Z,101666.13
2023-05-21T13:25:18.181Z,101658.22
2023-05-21T13:27:44.972Z,101652.97
2023-05-21T13:30:11.880Z,101654.28
2023-05-21T13:32:39.631Z,101646.91
2023-05-21T13:35:06.972Z,101644.81
2023-05-21T13:37:36.099Z,101648.66
2023-05-21T13:40:04.728Z,101638.97
2023-05-21T13:42:31.200Z,101643.03
2023-05-21T13:44:58.146Z,101639.31
2023-05-21T13:47:24.787Z,101640.84
2023-05-21T13:49:51.394Z,101646.66
2023-05-21T13:52:17.857Z,101644.41
2023-05-21T13:54:44.265Z,101643.91
2023-05-21T13:57:10.797Z,101646.13
2023-05-21T13:59:37.354Z,101645.63
2023-05-21T14:02:04.033Z,101653.34
2023-05-21T14:04:30.694Z,101653.06
2023-05-21T14:06:57.235Z,101643.97
2023-05-21T14:09:26.976Z,101646.13
2023-05-21T14:11:54.969Z,101649.41
2023-05-21T14:14:21.851Z,101650.81
2023-05-21T14:16:49.187Z,101646.72
2023-05-21T14:19:16.448Z,101652.47
2023-05-21T14:21:43.211Z,101653.34
2023-05-21T14:24:10.282Z,101656.69
2023-05-21T14:26:42.940Z,101650.84
2023-05-21T14:29:10.097Z,101649.78
2023-05-21T14:31:37.822Z,101647.38
2023-05-21T14:34:05.165Z,101648.25
2023-05-21T14:36:32.447Z,101647.69
2023-05-21T14:38:59.124Z,101651.84
2023-05-21T14:41:26.932Z,101643.84
2023-05-21T14:43:53.916Z,101635.22
2023-05-21T14:46:20.657Z,101632.81
2023-05-21T14:48:47.108Z,101629.81
2023-05-21T14:51:14.284Z,101630.19
2023-05-21T14:53:40.745Z,101624.34
2023-05-21T14:56:07.960Z,101625.66
2023-05-21T14:58:34.404Z,101625.72
2023-05-21T15:01:02.512Z,101625.19
2023-05-21T15:03:28.962Z,101622.75
2023-05-21T15:05:55.573Z,101614.41
2023-05-21T15:08:22.658Z,101624.84
2023-05-21T15:10:49.269Z,101613.25
2023-05-21T15:13:15.704Z,101605.81
2023-05-21T15:15:42.139Z,101602.00
2023-05-21T15:18:08.912Z,101605.91
2023-05-21T15:20:35.413Z,101607.94
2023-05-21T15:25:31.220Z,101605.69
2023-05-21T15:27:57.673Z,101599.59
2023-05-21T15:30:25.378Z,101610.31
2023-05-21T15:32:51.959Z,101605.94
2023-05-21T15:35:18.681Z,101606.72
2023-05-21T15:37:46.077Z,101619.41
2023-05-21T15:40:12.942Z,101605.06
2023-05-21T15:42:39.281Z,101601.22
2023-05-21T15:45:06.326Z,101608.09
2023-05-21T15:47:32.968Z,101597.97
2023-05-21T15:50:00.469Z,101587.84
2023-05-21T15:52:27.156Z,101595.06
2023-05-21T15:54:54.754Z,101589.63
2023-05-21T15:57:21.202Z,101584.72
2023-05-21T15:59:47.719Z,101584.03
2023-05-21T16:02:14.193Z,101583.25
2023-05-21T16:04:40.650Z,101577.50
2023-05-21T16:07:07.125Z,101580.34
2023-05-21T16:09:33.742Z,101584.50
2023-05-21T16:12:00.821Z,101583.41
2023-05-21T16:14:29.174Z,101573.28
2023-05-21T16:16:55.873Z,101586.25
2023-05-21T16:19:22.318Z,101587.97
2023-05-21T16:21:48.753Z,101585.53
2023-05-21T16:24:15.461Z,101585.59
2023-05-21T16:26:41.862Z,101587.25
2023-05-21T16:29:08.346Z,101595.09
2023-05-21T16:31:34.906Z,101590.56
2023-05-21T16:34:01.344Z,101595.31
2023-05-21T16:36:27.969Z,101590.09
2023-05-21T16:38:54.419Z,101591.31
2023-05-21T16:41:21.650Z,101583.41
2023-05-21T16:43:48.222Z,101599.16
2023-05-21T16:46:14.729Z,101590.19
2023-05-21T16:48:42.612Z,101597.94
2023-05-21T16:51:09.106Z,101590.03
2023-05-21T16:53:35.610Z,101598.16
2023-05-21T16:56:01.973Z,101592.78
2023-05-21T16:58:28.428Z,101592.34
2023-05-21T17:00:54.851Z,101595.53
2023-05-21T17:03:21.393Z,101591.84
2023-05-21T17:05:47.874Z,101597.63
2023-05-21T17:08:14.309Z,101588.75
2023-05-21T17:10:40.691Z,101603.41
2023-05-21T17:13:20.912Z,101591.03
2023-05-21T17:15:48.587Z,101606.19
2023-05-21T17:18:15.298Z,101596.69
2023-05-21T17:20:43.917Z,101598.94
2023-05-21T17:23:11.473Z,101597.41
2023-05-21T17:25:38.229Z,101603.41
2023-05-21T17:28:04.953Z,101604.19
2023-05-21T17:30:31.393Z,101595.72
2023-05-21T17:32:58.265Z,101596.69
2023-05-21T17:35:24.795Z,101596.28
2023-05-21T17:37:53.203Z,101600.06
2023-05-21T17:40:21.258Z,101606.38
2023-05-21T17:42:47.872Z,101605.41
2023-05-21T17:45:14.428Z,101598.66
2023-05-21T17:47:40.968Z,101593.88
2023-05-21T17:50:08.155Z,101596.38
2023-05-21T17:52:34.593Z,101592.97
2023-05-21T17:55:01.692Z,101590.38
2023-05-21T17:57:28.077Z,101597.63
2023-05-21T17:59:55.111Z,101597.50
2023-05-21T18:02:23.339Z,101603.50
2023-05-21T18:04:49.910Z,101603.38
2023-05-21T18:07:16.536Z,101603.56
2023-05-21T18:09:42.955Z,101599.91
2023-05-21T18:12:09.422Z,101611.41
2023-05-21T18:14:35.852Z,101611.56
2023-05-21T18:17:02.626Z,101602.97
2023-05-21T18:19:30.431Z,101611.97
2023-05-21T18:21:57.154Z,101609.28
2023-05-21T18:24:23.577Z,101606.19
2023-05-21T18:26:50.012Z,101607.00
2023-05-21T18:29:16.403Z,101605.59
2023-05-21T18:31:45.787Z,101599.88
2023-05-21T18:34:12.391Z,101608.13
2023-05-21T18:36:39.085Z,101600.66
2023-05-21T18:39:07.016Z,101603.59
2023-05-21T18:41:34.039Z,101598.56
2023-05-21T18:44:03.576Z,101606.53
2023-05-21T18:46:30.120Z,101605.63
2023-05-21T18:48:56.598Z,101607.41
2023-05-21T18:51:23.025Z,101609.25
2023-05-21T18:53:49.481Z,101603.34
2023-05-21T18:56:16.259Z,101604.38
2023-05-21T18:58:42.759Z,101603.22
2023-05-21T19:01:09.198Z,101602.03
2023-05-21T19:03:35.726Z,101596.16
2023-05-21T19:06:02.295Z,101599.59
2023-05-21T19:08:28.640Z,101596.41
2023-05-21T19:10:55.149Z,101611.56
2023-05-21T19:13:23.224Z,101601.59
2023-05-21T19:15:49.763Z,101605.53
2023-05-21T19:18:17.171Z,101606.75
2023-05-21T19:20:43.727Z,101602.38
2023-05-21T19:23:10.152Z,101601.56
2023-05-21T19:25:36.536Z,101599.41
2023-05-21T19:28:03.083Z,101607.31
2023-05-21T19:30:29.491Z,101604.97
2023-05-21T19:32:56.330Z,101611.84
2023-05-21T19:35:22.881Z,101611.78
2023-05-21T19:37:49.207Z,101612.91
2023-05-21T19:40:17.558Z,101611.78
2023-05-21T19:42:44.512Z,101616.19
2023-05-21T19:45:11.733Z,101611.16
2023-05-21T19:47:40.904Z,101612.00
2023-05-21T19:50:08.023Z,101616.41
2023-05-21T19:52:34.478Z,101621.56
2023-05-21T19:55:04.729Z,101628.75
2023-05-21T19:57:32.565Z,101629.00
2023-05-21T19:59:59.415Z,101633.53
2023-05-21T20:02:28.460Z,101636.28
2023-05-21T20:04:56.885Z,101637.84
2023-05-21T20:07:23.715Z,101632.75
2023-05-21T20:09:50.455Z,101632.16
2023-05-21T20:12:16.839Z,101625.84
2023-05-21T20:14:46.600Z,101625.00
2023-05-21T20:17:13.587Z,101637.75
2023-05-21T20:19:40.030Z,101628.25
2023-05-21T20:22:06.512Z,101633.59
2023-05-21T20:24:32.957Z,101646.81
2023-05-21T20:27:01.604Z,101639.47
2023-05-21T20:29:28.765Z,101636.00
2023-05-21T20:31:55.435Z,101636.72
2023-05-21T20:34:21.823Z,101633.69
2023-05-21T20:36:48.422Z,101638.09
2023-05-21T20:39:15.577Z,101641.06
2023-05-21T20:41:44.531Z,101636.28
2023-05-21T20:44:11.139Z,101639.13
2023-05-21T20:46:38.310Z,101629.72
2023-05-21T20:49:05.164Z,101628.41
2023-05-21T20:51:31.661Z,101624.34
2023-05-21T20:53:58.048Z,101631.13
2023-05-21T20:56:40.801Z,101630.06
2023-05-21T20:59:10.483Z,101615.66
2023-05-21T21:01:37.955Z,101618.19
2023-05-21T21:04:04.998Z,101627.09
2023-05-21T21:06:31.806Z,101615.66
2023-05-21T21:08:58.385Z,101625.16
2023-05-21T21:11:25.024Z,101614.69
2023-05-21T21:13:51.840Z,101623.13
2023-05-21T21:16:18.584Z,101624.91
2023-05-21T21:18:46.796Z,101626.19
2023-05-21T21:21:13.406Z,101617.75
2023-05-21T21:23:39.850Z,101607.66
2023-05-21T21:26:06.301Z,101611.09
2023-05-21T21:28:32.694Z,101607.50
2023-05-21T21:30:59.103Z,101612.00
2023-05-21T21:33:26.668Z,101608.09
2023-05-21T21:35:53.210Z,101600.94
2023-05-21T21:38:19.565Z,101606.06
2023-05-21T21:40:46.035Z,101609.22
2023-05-21T21:43:12.471Z,101604.03
2023-05-21T21:45:38.885Z,101611.00
2023-05-21T21:48:05.772Z,101608.03
2023-05-21T21:50:32.414Z,101605.06
2023-05-21T21:52:59.834Z,101610.56
2023-05-21T21:55:26.298Z,101601.13
2023-05-21T21:57:52.701Z,101604.38
2023-05-21T22:00:19.292Z,101604.63
2023-05-21T22:02:46.625Z,101608.50
2023-05-21T22:05:14.833Z,101615.72
2023-05-21T22:07:42.625Z,101612.38
2023-05-21T22:10:09.693Z,101608.44
2023-05-21T22:12:36.143Z,101606.19
2023-05-21T22:15:06.612Z,101606.63
2023-05-21T22:17:33.979Z,101596.59
2023-05-21T22:20:01.179Z,101598.97
2023-05-21T22:22:27.656Z,101595.41
2023-05-21T22:24:54.351Z,101592.53
2023-05-21T22:27:20.903Z,101587.91
2023-05-21T22:29:47.554Z,101588.38
2023-05-21T22:32:13.979Z,101590.34
2023-05-21T22:34:41.777Z,101585.56
2023-05-21T22:37:08.353Z,101580.53
2023-05-21T22:39:34.755Z,101592.09
2023-05-21T22:42:01.968Z,101590.47
2023-05-21T22:44:28.398Z,101577.50
2023-05-21T22:46:56.442Z,101580.03
2023-05-21T22:49:23.040Z,101579.88
2023-05-21T22:51:50.882Z,101570.53
2023-05-21T22:54:17.431Z,101590.91
2023-05-21T22:56:44.305Z,101587.53
2023-05-21T22:59:10.878Z,101585.19
2023-05-21T23:01:38.200Z,101594.22
2023-05-21T23:04:04.764Z,101583.34
2023-05-21T23:06:31.706Z,101601.41
2023-05-21T23:08:58.130Z,101601.41
2023-05-21T23:11:24.662Z,101598.47
2023-05-21T23:13:51.059Z,101607.06
2023-05-21T23:16:17.490Z,101631.50
2023-05-21T23:18:43.863Z,101649.34
2023-05-21T23:21:10.488Z,101652.50
2023-05-21T23:23:36.896Z,101657.88
2023-05-21T23:26:03.321Z,101650.34
2023-05-21T23:28:29.823Z,101641.06
2023-05-21T23:30:56.325Z,101639.09
2023-05-21T23:33:22.743Z,101645.78
2023-05-21T23:35:49.147Z,101634.03
2023-05-21T23:38:15.680Z,101620.16
2023-05-21T23:40:42.283Z,101615.13
2023-05-21T23:43:08.756Z,101622.31
2023-05-21T23:45:35.393Z,101612.94
2023-05-21T23:48:01.826Z,101628.28
2023-05-21T23:50:28.270Z,101596.22
2023-05-21T23:52:54.942Z,101593.97
2023-05-21T23:55:21.273Z,101593.97
